sensor_id;sensor_type;location;lat;lon;timestamp;pressure;altitude;pressure_sealevel;temperature;humidity
12969;BME280;6549;53.128;8.182;2023-03-01T00:01:06;102979.44;;;-2.10;100.00
12969;BME280;6549;53.128;8.182;2023-03-01T00:04:07;102971.59;;;-2.12;100.00
12969;BME280;6549;53.128;8.182;2023-03-01T00:07:07;102977.25;;;-2.13;100.00
12969;BME280;6549;53.128;8.182;2023-03-01T00:10:08;102969.66;;;-2.16;100.00
12969;BME280;6549;53.128;8.182;2023-03-01T00:13:09;102963.84;;;-2.25;100.00
12969;BME280;6549;53.128;8.182;2023-03-01T00:16:13;102979.13;;;-2.31;100.00
12969;BME280;6549;53.128;8.182;2023-03-01T00:19:16;102967.06;;;-2.28;100.00
12969;BME280;6549;53.128;8.182;2023-03-01T00:22:16;102956.47;;;-2.35;100.00
12969;BME280;6549;53.128;8.182;2023-03-01T00:25:17;102956.59;;;-2.41;100.00
12969;BME280;6549;53.128;8.182;2023-03-01T00:28:17;102956.03;;;-2.43;100.00
12969;BME280;6549;53.128;8.182;2023-03-01T00:31:20;102959.53;;;-2.43;100.00
12969;BME280;6549;53.128;8.182;2023-03-01T00:34:21;102956.59;;;-2.58;100.00
12969;BME280;6549;53.128;8.182;2023-03-01T00:37:22;102963.28;;;-2.60;100.00
12969;BME280;6549;53.128;8.182;2023-03-01T00:40:33;102952.88;;;-2.57;100.00
12969;BME280;6549;53.128;8.182;2023-03-01T00:43:34;102952.88;;;-2.57;100.00
12969;BME280;6549;53.128;8.182;2023-03-01T00:46:37;102948.28;;;-2.56;100.00
12969;BME280;6549;53.128;8.182;2023-03-01T00:49:38;102945.84;;;-2.58;100.00
12969;BME280;6549;53.128;8.182;2023-03-01T00:52:38;102946.31;;;-2.61;100.00
12969;BME280;6549;53.128;8.182;2023-03-01T00:55:38;102948.13;;;-2.66;100.00
12969;BME280;6549;53.128;8.182;2023-03-01T00:58:39;102948.84;;;-2.71;100.00
12969;BME280;6549;53.128;8.182;2023-03-01T01:01:39;102949.91;;;-2.72;100.00
12969;BME280;6549;53.128;8.182;2023-03-01T01:04:40;102951.69;;;-2.78;100.00
12969;BME280;6549;53.128;8.182;2023-03-01T01:07:40;102954.63;;;-2.79;100.00
12969;BME280;6549;53.128;8.182;2023-03-01T01:10:43;102952.72;;;-2.79;100.00
12969;BME280;6549;53.128;8.182;2023-03-01T01:13:45;102942.78;;;-2.78;100.00
12969;BME280;6549;53.128;8.182;2023-03-01T01:16:46;102944.66;;;-2.79;100.00
12969;BME280;6549;53.128;8.182;2023-03-01T01:19:46;102936.34;;;-2.77;100.00
12969;BME280;6549;53.128;8.182;2023-03-01T01:22:46;102938.50;;;-2.79;100.00
12969;BME280;6549;53.128;8.182;2023-03-01T01:25:47;102936.53;;;-2.84;100.00
12969;BME280;6549;53.128;8.182;2023-03-01T01:28:47;102935.13;;;-2.86;100.00
12969;BME280;6549;53.128;8.182;2023-03-01T01:31:48;102931.50;;;-2.92;100.00
12969;BME280;6549;53.128;8.182;2023-03-01T01:34:48;102925.47;;;-2.99;100.00
12969;BME280;6549;53.128;8.182;2023-03-01T01:37:48;102925.25;;;-2.97;100.00
12969;BME280;6549;53.128;8.182;2023-03-01T01:40:50;102918.00;;;-2.97;100.00
12969;BME280;6549;53.128;8.182;2023-03-01T01:44:20;102911.53;;;-2.96;100.00
12969;BME280;6549;53.128;8.182;2023-03-01T01:47:21;102912.13;;;-2.94;100.00
12969;BME280;6549;53.128;8.182;2023-03-01T01:50:23;102911.06;;;-2.93;100.00
12969;BME280;6549;53.128;8.182;2023-03-01T01:53:24;102908.63;;;-2.94;100.00
12969;BME280;6549;53.128;8.182;2023-03-01T01:56:26;102908.28;;;-2.98;100.00
12969;BME280;6549;53.128;8.182;2023-03-01T01:59:30;102895.91;;;-2.99;100.00
12969;BME280;6549;53.128;8.182;2023-03-01T02:02:32;102896.38;;;-3.02;100.00
12969;BME280;6549;53.128;8.182;2023-03-01T02:05:46;102894.75;;;-3.03;100.00
12969;BME280;6549;53.128;8.182;2023-03-01T02:08:49;102885.31;;;-3.05;100.00
12969;BME280;6549;53.128;8.182;2023-03-01T02:11:53;102874.44;;;-3.10;100.00
12969;BME280;6549;53.128;8.182;2023-03-01T02:14:53;102871.19;;;-3.12;100.00
12969;BME280;6549;53.128;8.182;2023-03-01T02:17:54;102868.16;;;-3.16;100.00
12969;BME280;6549;53.128;8.182;2023-03-01T02:24:28;102867.41;;;-3.28;100.00
12969;BME280;6549;53.128;8.182;2023-03-01T02:27:37;102868.13;;;-3.33;100.00
12969;BME280;6549;53.128;8.182;2023-03-01T02:30:41;102866.41;;;-3.39;100.00
12969;BME280;6549;53.128;8.182;2023-03-01T02:34:03;102865.25;;;-3.43;100.00
12969;BME280;6549;53.128;8.182;2023-03-01T02:37:10;102867.59;;;-3.46;100.00
12969;BME280;6549;53.128;8.182;2023-03-01T02:40:15;102880.22;;;-3.47;100.00
12969;BME280;6549;53.128;8.182;2023-03-01T02:43:19;102880.22;;;-3.47;100.00
12969;BME280;6549;53.128;8.182;2023-03-01T02:46:23;102882.91;;;-3.47;100.00
12969;BME280;6549;53.128;8.182;2023-03-01T02:49:27;102880.22;;;-3.47;100.00
12969;BME280;6549;53.128;8.182;2023-03-01T02:52:34;102874.03;;;-3.47;100.00
12969;BME280;6549;53.128;8.182;2023-03-01T02:55:37;102879.19;;;-3.46;100.00
12969;BME280;6549;53.128;8.182;2023-03-01T02:58:42;102881.28;;;-3.48;100.00
12969;BME280;6549;53.128;8.182;2023-03-01T03:01:45;102888.53;;;-3.48;100.00
12969;BME280;6549;53.128;8.182;2023-03-01T03:04:46;102880.94;;;-3.51;100.00
12969;BME280;6549;53.128;8.182;2023-03-01T03:07:48;102873.94;;;-3.52;100.00
12969;BME280;6549;53.128;8.182;2023-03-01T03:10:48;102877.66;;;-3.53;100.00
12969;BME280;6549;53.128;8.182;2023-03-01T03:13:48;102870.41;;;-3.53;100.00
12969;BME280;6549;53.128;8.182;2023-03-01T03:16:50;102876.84;;;-3.54;100.00
12969;BME280;6549;53.128;8.182;2023-03-01T03:19:50;102872.56;;;-3.55;100.00
12969;BME280;6549;53.128;8.182;2023-03-01T03:22:53;102866.03;;;-3.59;100.00
12969;BME280;6549;53.128;8.182;2023-03-01T03:25:54;102871.84;;;-3.62;100.00
12969;BME280;6549;53.128;8.182;2023-03-01T03:28:54;102860.78;;;-3.66;100.00
12969;BME280;6549;53.128;8.182;2023-03-01T03:31:54;102859.13;;;-3.67;100.00
12969;BME280;6549;53.128;8.182;2023-03-01T03:34:54;102860.66;;;-3.71;100.00
12969;BME280;6549;53.128;8.182;2023-03-01T03:37:56;102860.56;;;-3.76;100.00
12969;BME280;6549;53.128;8.182;2023-03-01T03:41:05;102851.94;;;-3.78;100.00
12969;BME280;6549;53.128;8.182;2023-03-01T03:44:07;102850.47;;;-3.85;100.00
12969;BME280;6549;53.128;8.182;2023-03-01T03:47:07;102844.72;;;-3.89;100.00
12969;BME280;6549;53.128;8.182;2023-03-01T03:50:12;102845.44;;;-3.93;100.00
12969;BME280;6549;53.128;8.182;2023-03-01T03:53:13;102840.53;;;-3.96;100.00
12969;BME280;6549;53.128;8.182;2023-03-01T03:56:14;102846.97;;;-3.97;100.00
12969;BME280;6549;53.128;8.182;2023-03-01T03:59:14;102838.78;;;-4.02;100.00
12969;BME280;6549;53.128;8.182;2023-03-01T04:02:14;102843.59;;;-4.04;100.00
12969;BME280;6549;53.128;8.182;2023-03-01T04:05:24;102835.78;;;-4.06;100.00
12969;BME280;6549;53.128;8.182;2023-03-01T04:08:24;102834.13;;;-4.07;100.00
12969;BME280;6549;53.128;8.182;2023-03-01T04:11:25;102832.53;;;-4.08;100.00
12969;BME280;6549;53.128;8.182;2023-03-01T04:14:28;102832.97;;;-4.11;100.00
12969;BME280;6549;53.128;8.182;2023-03-01T04:17:28;102819.00;;;-4.13;100.00
12969;BME280;6549;53.128;8.182;2023-03-01T04:20:31;102821.34;;;-4.17;100.00
12969;BME280;6549;53.128;8.182;2023-03-01T04:23:33;102819.09;;;-4.20;100.00
12969;BME280;6549;53.128;8.182;2023-03-01T04:26:33;102822.63;;;-4.19;100.00
12969;BME280;6549;53.128;8.182;2023-03-01T04:29:34;102823.22;;;-4.17;100.00
12969;BME280;6549;53.128;8.182;2023-03-01T04:32:34;102825.19;;;-4.13;100.00
12969;BME280;6549;53.128;8.182;2023-03-01T04:35:36;102817.69;;;-4.11;100.00
12969;BME280;6549;53.128;8.182;2023-03-01T04:38:37;102812.81;;;-4.14;100.00
12969;BME280;6549;53.128;8.182;2023-03-01T04:41:39;102814.34;;;-4.18;100.00
12969;BME280;6549;53.128;8.182;2023-03-01T04:44:40;102801.97;;;-4.19;100.00
12969;BME280;6549;53.128;8.182;2023-03-01T04:47:41;102808.75;;;-4.16;100.00
12969;BME280;6549;53.128;8.182;2023-03-01T04:50:42;102817.59;;;-4.16;100.00
12969;BME280;6549;53.128;8.182;2023-03-01T04:53:43;102814.09;;;-4.16;100.00
12969;BME280;6549;53.128;8.182;2023-03-01T04:56:44;102818.16;;;-4.14;100.00
12969;BME280;6549;53.128;8.182;2023-03-01T04:59:44;102815.50;;;-4.14;100.00
12969;BME280;6549;53.128;8.182;2023-03-01T05:02:44;102812.22;;;-4.16;100.00
12969;BME280;6549;53.128;8.182;2023-03-01T05:05:46;102802.56;;;-4.17;100.00
12969;BME280;6549;53.128;8.182;2023-03-01T05:08:47;102806.28;;;-4.18;100.00
12969;BME280;6549;53.128;8.182;2023-03-01T05:11:47;102797.88;;;-4.21;100.00
12969;BME280;6549;53.128;8.182;2023-03-01T05:14:47;102802.56;;;-4.28;100.00
12969;BME280;6549;53.128;8.182;2023-03-01T05:17:48;102794.16;;;-4.32;100.00
12969;BME280;6549;53.128;8.182;2023-03-01T05:20:49;102793.59;;;-4.34;100.00
12969;BME280;6549;53.128;8.182;2023-03-01T05:23:49;102787.31;;;-4.39;100.00
12969;BME280;6549;53.128;8.182;2023-03-01T05:26:50;102789.88;;;-4.44;100.00
12969;BME280;6549;53.128;8.182;2023-03-01T05:29:51;102787.41;;;-4.46;100.00
12969;BME280;6549;53.128;8.182;2023-03-01T05:32:52;102789.88;;;-4.44;100.00
12969;BME280;6549;53.128;8.182;2023-03-01T05:35:59;102798.50;;;-4.42;100.00
12969;BME280;6549;53.128;8.182;2023-03-01T05:39:00;102795.00;;;-4.43;100.00
12969;BME280;6549;53.128;8.182;2023-03-01T05:42:01;102793.25;;;-4.49;100.00
12969;BME280;6549;53.128;8.182;2023-03-01T05:45:01;102791.88;;;-4.51;100.00
12969;BME280;6549;53.128;8.182;2023-03-01T05:48:01;102791.75;;;-4.57;100.00
12969;BME280;6549;53.128;8.182;2023-03-01T05:51:02;102788.72;;;-4.60;100.00
12969;BME280;6549;53.128;8.182;2023-03-01T05:54:02;102785.13;;;-4.66;100.00
12969;BME280;6549;53.128;8.182;2023-03-01T05:57:05;102787.09;;;-4.73;100.00
12969;BME280;6549;53.128;8.182;2023-03-01T06:00:06;102796.09;;;-4.79;100.00
12969;BME280;6549;53.128;8.182;2023-03-01T06:03:09;102796.91;;;-4.78;100.00
12969;BME280;6549;53.128;8.182;2023-03-01T06:06:10;102792.44;;;-4.73;100.00
12969;BME280;6549;53.128;8.182;2023-03-01T06:09:10;102801.22;;;-4.66;100.00
12969;BME280;6549;53.128;8.182;2023-03-01T06:12:11;102795.16;;;-4.61;100.00
12969;BME280;6549;53.128;8.182;2023-03-01T06:15:13;102793.84;;;-4.59;100.00
12969;BME280;6549;53.128;8.182;2023-03-01T06:18:14;102798.72;;;-4.56;100.00
12969;BME280;6549;53.128;8.182;2023-03-01T06:21:14;102799.94;;;-4.51;100.00
12969;BME280;6549;53.128;8.182;2023-03-01T06:24:14;102794.19;;;-4.55;100.00
12969;BME280;6549;53.128;8.182;2023-03-01T06:27:15;102797.56;;;-4.60;100.00
12969;BME280;6549;53.128;8.182;2023-03-01T06:30:17;102798.66;;;-4.61;100.00
12969;BME280;6549;53.128;8.182;2023-03-01T06:33:19;102791.88;;;-4.63;100.00
12969;BME280;6549;53.128;8.182;2023-03-01T06:36:24;102804.22;;;-4.62;100.00
12969;BME280;6549;53.128;8.182;2023-03-01T06:39:24;102803.31;;;-4.56;100.00
12969;BME280;6549;53.128;8.182;2023-03-01T06:42:24;102810.41;;;-4.50;100.00
12969;BME280;6549;53.128;8.182;2023-03-01T06:45:25;102818.34;;;-4.43;100.00
12969;BME280;6549;53.128;8.182;2023-03-01T06:48:25;102812.50;;;-4.40;100.00
12969;BME280;6549;53.128;8.182;2023-03-01T06:51:25;102815.63;;;-4.32;100.00
12969;BME280;6549;53.128;8.182;2023-03-01T06:54:26;102816.09;;;-4.23;100.00
12969;BME280;6549;53.128;8.182;2023-03-01T06:57:26;102822.25;;;-4.11;100.00
12969;BME280;6549;53.128;8.182;2023-03-01T07:00:27;102817.25;;;-4.07;100.00
12969;BME280;6549;53.128;8.182;2023-03-01T07:03:27;102812.53;;;-4.00;100.00
12969;BME280;6549;53.128;8.182;2023-03-01T07:06:28;102817.78;;;-3.94;100.00
12969;BME280;6549;53.128;8.182;2023-03-01T07:09:28;102820.53;;;-3.89;100.00
12969;BME280;6549;53.128;8.182;2023-03-01T07:12:28;102825.31;;;-3.79;100.00
12969;BME280;6549;53.128;8.182;2023-03-01T07:15:29;102817.69;;;-3.71;100.00
12969;BME280;6549;53.128;8.182;2023-03-01T07:18:29;102818.09;;;-3.50;100.00
12969;BME280;6549;53.128;8.182;2023-03-01T07:21:29;102823.25;;;-3.15;100.00
12969;BME280;6549;53.128;8.182;2023-03-01T07:24:30;102827.69;;;-2.93;100.00
12969;BME280;6549;53.128;8.182;2023-03-01T07:27:30;102830.78;;;-2.84;100.00
12969;BME280;6549;53.128;8.182;2023-03-01T07:30:30;102838.84;;;-2.84;100.00
12969;BME280;6549;53.128;8.182;2023-03-01T07:33:32;102838.03;;;-2.85;100.00
12969;BME280;6549;53.128;8.182;2023-03-01T07:36:32;102835.91;;;-2.83;100.00
12969;BME280;6549;53.128;8.182;2023-03-01T07:39:33;102830.88;;;-2.79;100.00
12969;BME280;6549;53.128;8.182;2023-03-01T07:42:33;102838.53;;;-2.71;100.00
12969;BME280;6549;53.128;8.182;2023-03-01T07:45:33;102833.78;;;-2.64;100.00
12969;BME280;6549;53.128;8.182;2023-03-01T07:48:34;102833.44;;;-2.51;100.00
12969;BME280;6549;53.128;8.182;2023-03-01T07:51:34;102832.59;;;-2.35;100.00
12969;BME280;6549;53.128;8.182;2023-03-01T07:54:34;102826.84;;;-2.21;100.00
12969;BME280;6549;53.128;8.182;2023-03-01T07:57:35;102827.28;;;-2.08;100.00
12969;BME280;6549;53.128;8.182;2023-03-01T08:00:35;102829.34;;;-1.93;100.00
12969;BME280;6549;53.128;8.182;2023-03-01T08:03:36;102823.56;;;-1.80;100.00
12969;BME280;6549;53.128;8.182;2023-03-01T08:06:37;102815.69;;;-1.65;100.00
12969;BME280;6549;53.128;8.182;2023-03-01T08:09:37;102812.72;;;-1.37;100.00
12969;BME280;6549;53.128;8.182;2023-03-01T08:12:37;102815.97;;;-1.08;100.00
12969;BME280;6549;53.128;8.182;2023-03-01T08:15:38;102809.97;;;-0.78;100.00
12969;BME280;6549;53.128;8.182;2023-03-01T08:18:38;102810.78;;;-0.40;100.00
12969;BME280;6549;53.128;8.182;2023-03-01T08:21:39;102802.81;;;-0.10;100.00
12969;BME280;6549;53.128;8.182;2023-03-01T08:24:39;102794.88;;;0.45;100.00
12969;BME280;6549;53.128;8.182;2023-03-01T08:27:40;102796.53;;;0.77;100.00
12969;BME280;6549;53.128;8.182;2023-03-01T08:30:40;102802.78;;;0.93;100.00
12969;BME280;6549;53.128;8.182;2023-03-01T08:33:41;102805.16;;;1.40;100.00
12969;BME280;6549;53.128;8.182;2023-03-01T08:36:43;102802.31;;;2.39;100.00
12969;BME280;6549;53.128;8.182;2023-03-01T08:39:44;102805.03;;;3.70;100.00
12969;BME280;6549;53.128;8.182;2023-03-01T08:42:44;102803.59;;;4.57;100.00
12969;BME280;6549;53.128;8.182;2023-03-01T08:45:45;102802.31;;;5.19;100.00
12969;BME280;6549;53.128;8.182;2023-03-01T08:48:45;102798.06;;;5.59;100.00
12969;BME280;6549;53.128;8.182;2023-03-01T08:51:46;102790.53;;;5.97;100.00
12969;BME280;6549;53.128;8.182;2023-03-01T08:54:47;102782.16;;;6.29;100.00
12969;BME280;6549;53.128;8.182;2023-03-01T08:57:48;102787.25;;;6.58;100.00
12969;BME280;6549;53.128;8.182;2023-03-01T09:00:48;102787.75;;;6.83;100.00
12969;BME280;6549;53.128;8.182;2023-03-01T09:03:48;102791.72;;;6.76;100.00
12969;BME280;6549;53.128;8.182;2023-03-01T09:06:49;102791.72;;;7.21;100.00
12969;BME280;6549;53.128;8.182;2023-03-01T09:09:49;102789.19;;;7.64;100.00
12969;BME280;6549;53.128;8.182;2023-03-01T09:12:53;102786.66;;;7.85;100.00
12969;BME280;6549;53.128;8.182;2023-03-01T09:15:54;102786.91;;;8.14;100.00
12969;BME280;6549;53.128;8.182;2023-03-01T09:18:55;102795.31;;;8.26;100.00
12969;BME280;6549;53.128;8.182;2023-03-01T09:21:55;102784.66;;;8.25;100.00
12969;BME280;6549;53.128;8.182;2023-03-01T09:24:56;102788.75;;;8.62;100.00
12969;BME280;6549;53.128;8.182;2023-03-01T09:27:59;102788.41;;;8.54;100.00
12969;BME280;6549;53.128;8.182;2023-03-01T09:31:00;102790.81;;;8.82;100.00
12969;BME280;6549;53.128;8.182;2023-03-01T09:34:00;102796.72;;;8.24;95.31
12969;BME280;6549;53.128;8.182;2023-03-01T09:37:00;102801.38;;;8.06;84.64
12969;BME280;6549;53.128;8.182;2023-03-01T09:40:04;102792.88;;;8.16;88.21
12969;BME280;6549;53.128;8.182;2023-03-01T09:46:44;102790.94;;;9.20;91.81
12969;BME280;6549;53.128;8.182;2023-03-01T09:50:02;102786.53;;;9.74;83.45
12969;BME280;6549;53.128;8.182;2023-03-01T09:53:15;102790.44;;;10.02;68.20
12969;BME280;6549;53.128;8.182;2023-03-01T09:56:21;102794.03;;;9.94;66.01
12969;BME280;6549;53.128;8.182;2023-03-01T10:00:14;102795.28;;;9.67;66.06
12969;BME280;6549;53.128;8.182;2023-03-01T10:03:16;102790.59;;;9.97;64.34
12969;BME280;6549;53.128;8.182;2023-03-01T10:06:21;102792.41;;;9.93;60.05
12969;BME280;6549;53.128;8.182;2023-03-01T10:09:23;102785.03;;;9.56;63.07
12969;BME280;6549;53.128;8.182;2023-03-01T10:12:27;102786.19;;;10.05;60.50
12969;BME280;6549;53.128;8.182;2023-03-01T10:15:40;102783.19;;;9.98;60.72
12969;BME280;6549;53.128;8.182;2023-03-01T10:18:54;102775.75;;;9.98;61.77
12969;BME280;6549;53.128;8.182;2023-03-01T10:21:57;102776.03;;;9.76;59.82
12969;BME280;6549;53.128;8.182;2023-03-01T10:25:03;102778.09;;;10.17;60.82
12969;BME280;6549;53.128;8.182;2023-03-01T10:28:12;102777.50;;;10.53;59.82
12969;BME280;6549;53.128;8.182;2023-03-01T10:31:21;102773.56;;;9.83;56.29
12969;BME280;6549;53.128;8.182;2023-03-01T10:34:31;102772.63;;;10.08;57.29
12969;BME280;6549;53.128;8.182;2023-03-01T10:37:31;102769.47;;;9.13;59.46
12969;BME280;6549;53.128;8.182;2023-03-01T10:40:33;102771.78;;;8.94;59.71
12969;BME280;6549;53.128;8.182;2023-03-01T10:44:09;102768.56;;;8.92;61.64
12969;BME280;6549;53.128;8.182;2023-03-01T10:47:29;102765.44;;;9.19;62.60
12969;BME280;6549;53.128;8.182;2023-03-01T10:50:30;102765.94;;;9.13;61.34
12969;BME280;6549;53.128;8.182;2023-03-01T10:56:52;102759.41;;;9.34;64.29
12969;BME280;6549;53.128;8.182;2023-03-01T11:00:09;102760.66;;;9.45;64.65
12969;BME280;6549;53.128;8.182;2023-03-01T11:03:17;102763.69;;;9.53;65.16
12969;BME280;6549;53.128;8.182;2023-03-01T11:06:22;102762.28;;;9.46;65.54
12969;BME280;6549;53.128;8.182;2023-03-01T11:09:23;102760.31;;;9.09;66.32
12969;BME280;6549;53.128;8.182;2023-03-01T11:12:27;102757.84;;;9.25;68.02
12969;BME280;6549;53.128;8.182;2023-03-01T11:15:29;102761.19;;;8.67;68.80
12969;BME280;6549;53.128;8.182;2023-03-01T11:18:31;102747.16;;;8.34;71.76
12969;BME280;6549;53.128;8.182;2023-03-01T11:21:33;102757.97;;;8.30;74.31
12969;BME280;6549;53.128;8.182;2023-03-01T11:24:42;102748.06;;;8.12;75.49
12969;BME280;6549;53.128;8.182;2023-03-01T11:27:45;102755.69;;;7.67;76.25
12969;BME280;6549;53.128;8.182;2023-03-01T11:31:08;102753.31;;;7.74;77.80
12969;BME280;6549;53.128;8.182;2023-03-01T11:34:16;102753.31;;;7.74;80.44
12969;BME280;6549;53.128;8.182;2023-03-01T11:37:44;102747.00;;;8.30;79.67
12969;BME280;6549;53.128;8.182;2023-03-01T11:40:51;102735.22;;;8.64;76.14
12969;BME280;6549;53.128;8.182;2023-03-01T11:44:09;102732.59;;;8.07;77.14
12969;BME280;6549;53.128;8.182;2023-03-01T11:50:40;102723.13;;;8.74;78.94
12969;BME280;6549;53.128;8.182;2023-03-01T11:53:54;102727.97;;;8.60;78.04
12969;BME280;6549;53.128;8.182;2023-03-01T12:00:52;102722.09;;;8.95;77.58
12969;BME280;6549;53.128;8.182;2023-03-01T12:04:00;102727.44;;;8.92;76.25
12969;BME280;6549;53.128;8.182;2023-03-01T12:07:15;102727.66;;;8.35;80.60
12969;BME280;6549;53.128;8.182;2023-03-01T12:10:32;102723.31;;;8.51;79.85
12969;BME280;6549;53.128;8.182;2023-03-01T12:17:22;102719.09;;;8.28;82.22
12969;BME280;6549;53.128;8.182;2023-03-01T12:31:00;102705.19;;;8.76;82.10
12969;BME280;6549;53.128;8.182;2023-03-01T12:34:38;102691.31;;;8.81;86.00
12969;BME280;6549;53.128;8.182;2023-03-01T12:37:54;102696.13;;;9.01;85.06
12969;BME280;6549;53.128;8.182;2023-03-01T12:47:58;102671.75;;;9.00;84.97
12969;BME280;6549;53.128;8.182;2023-03-01T12:51:17;102677.66;;;9.19;80.74
12969;BME280;6549;53.128;8.182;2023-03-01T12:54:26;102673.41;;;9.30;82.28
12969;BME280;6549;53.128;8.182;2023-03-01T12:57:41;102669.97;;;8.40;83.04
12969;BME280;6549;53.128;8.182;2023-03-01T13:00:47;102671.91;;;8.48;83.07
12969;BME280;6549;53.128;8.182;2023-03-01T13:04:08;102667.84;;;8.46;84.20
12969;BME280;6549;53.128;8.182;2023-03-01T13:10:58;102653.03;;;8.47;84.91
12969;BME280;6549;53.128;8.182;2023-03-01T13:17:39;102647.94;;;8.92;84.42
12969;BME280;6549;53.128;8.182;2023-03-01T13:23:47;102655.50;;;8.95;86.85
12969;BME280;6549;53.128;8.182;2023-03-01T13:33:42;102625.75;;;8.68;90.21
12969;BME280;6549;53.128;8.182;2023-03-01T13:36:47;102616.22;;;8.74;93.25
12969;BME280;6549;53.128;8.182;2023-03-01T13:39:48;102612.38;;;8.66;91.25
12969;BME280;6549;53.128;8.182;2023-03-01T13:42:49;102612.47;;;8.87;90.93
12969;BME280;6549;53.128;8.182;2023-03-01T13:45:51;102607.94;;;8.91;91.78
12969;BME280;6549;53.128;8.182;2023-03-01T13:48:54;102608.94;;;8.78;95.24
12969;BME280;6549;53.128;8.182;2023-03-01T13:51:56;102600.91;;;8.73;94.11
12969;BME280;6549;53.128;8.182;2023-03-01T13:54:57;102606.31;;;8.26;97.16
12969;BME280;6549;53.128;8.182;2023-03-01T13:58:01;102600.66;;;8.48;97.52
12969;BME280;6549;53.128;8.182;2023-03-01T14:01:06;102594.97;;;8.71;95.27
12969;BME280;6549;53.128;8.182;2023-03-01T14:04:34;102595.97;;;8.57;96.80
12969;BME280;6549;53.128;8.182;2023-03-01T14:07:35;102594.19;;;8.62;100.00
12969;BME280;6549;53.128;8.182;2023-03-01T14:10:48;102575.59;;;8.76;96.83
12969;BME280;6549;53.128;8.182;2023-03-01T14:14:21;102576.22;;;8.73;100.00
12969;BME280;6549;53.128;8.182;2023-03-01T14:17:49;102572.09;;;8.67;99.56
12969;BME280;6549;53.128;8.182;2023-03-01T14:20:51;102566.06;;;8.35;100.00
12969;BME280;6549;53.128;8.182;2023-03-01T14:23:52;102566.94;;;8.56;99.82
12969;BME280;6549;53.128;8.182;2023-03-01T14:26:53;102556.75;;;8.66;99.50
12969;BME280;6549;53.128;8.182;2023-03-01T14:30:00;102551.69;;;8.38;100.00
12969;BME280;6549;53.128;8.182;2023-03-01T14:33:03;102558.56;;;8.62;100.00
12969;BME280;6549;53.128;8.182;2023-03-01T14:36:07;102550.41;;;8.44;100.00
12969;BME280;6549;53.128;8.182;2023-03-01T14:39:20;102544.59;;;8.37;100.00
12969;BME280;6549;53.128;8.182;2023-03-01T14:42:27;102540.91;;;8.25;100.00
12969;BME280;6549;53.128;8.182;2023-03-01T14:45:30;102541.41;;;8.18;100.00
12969;BME280;6549;53.128;8.182;2023-03-01T14:48:36;102532.53;;;8.21;100.00
12969;BME280;6549;53.128;8.182;2023-03-01T14:51:38;102525.44;;;8.20;100.00
12969;BME280;6549;53.128;8.182;2023-03-01T14:54:52;102523.06;;;8.10;100.00
12969;BME280;6549;53.128;8.182;2023-03-01T14:57:54;102522.06;;;8.23;100.00
12969;BME280;6549;53.128;8.182;2023-03-01T15:00:56;102515.00;;;8.31;100.00
12969;BME280;6549;53.128;8.182;2023-03-01T15:03:57;102514.19;;;8.30;100.00
12969;BME280;6549;53.128;8.182;2023-03-01T15:06:58;102521.28;;;8.14;100.00
12969;BME280;6549;53.128;8.182;2023-03-01T15:10:12;102514.53;;;8.03;100.00
12969;BME280;6549;53.128;8.182;2023-03-01T15:13:24;102515.38;;;7.95;100.00
12969;BME280;6549;53.128;8.182;2023-03-01T15:16:31;102510.56;;;7.83;100.00
12969;BME280;6549;53.128;8.182;2023-03-01T15:19:32;102502.66;;;7.90;100.00
12969;BME280;6549;53.128;8.182;2023-03-01T15:22:33;102498.94;;;7.95;100.00
12969;BME280;6549;53.128;8.182;2023-03-01T15:25:35;102495.72;;;7.84;100.00
12969;BME280;6549;53.128;8.182;2023-03-01T15:28:41;102491.72;;;7.73;100.00
12969;BME280;6549;53.128;8.182;2023-03-01T15:31:43;102490.78;;;7.60;100.00
12969;BME280;6549;53.128;8.182;2023-03-01T15:34:43;102485.63;;;7.50;100.00
12969;BME280;6549;53.128;8.182;2023-03-01T15:37:48;102486.09;;;7.35;100.00
12969;BME280;6549;53.128;8.182;2023-03-01T15:40:49;102476.63;;;7.15;100.00
12969;BME280;6549;53.128;8.182;2023-03-01T15:43:50;102484.31;;;7.13;100.00
12969;BME280;6549;53.128;8.182;2023-03-01T15:46:50;102477.72;;;7.06;100.00
12969;BME280;6549;53.128;8.182;2023-03-01T15:49:52;102476.63;;;7.15;100.00
12969;BME280;6549;53.128;8.182;2023-03-01T15:52:53;102472.91;;;7.03;100.00
12969;BME280;6549;53.128;8.182;2023-03-01T15:55:54;102469.69;;;7.18;100.00
12969;BME280;6549;53.128;8.182;2023-03-01T15:58:59;102466.94;;;6.92;100.00
12969;BME280;6549;53.128;8.182;2023-03-01T16:02:00;102468.84;;;6.83;100.00
12969;BME280;6549;53.128;8.182;2023-03-01T16:05:00;102475.25;;;6.78;100.00
12969;BME280;6549;53.128;8.182;2023-03-01T16:08:02;102463.22;;;6.80;100.00
12969;BME280;6549;53.128;8.182;2023-03-01T16:11:04;102470.59;;;6.70;100.00
12969;BME280;6549;53.128;8.182;2023-03-01T16:14:05;102468.63;;;6.62;100.00
12969;BME280;6549;53.128;8.182;2023-03-01T16:17:06;102474.53;;;6.56;100.00
12969;BME280;6549;53.128;8.182;2023-03-01T16:20:10;102472.91;;;6.46;100.00
12969;BME280;6549;53.128;8.182;2023-03-01T16:23:11;102469.53;;;6.41;100.00
12969;BME280;6549;53.128;8.182;2023-03-01T16:26:12;102469.97;;;6.34;100.00
12969;BME280;6549;53.128;8.182;2023-03-01T16:29:13;102469.78;;;6.30;100.00
12969;BME280;6549;53.128;8.182;2023-03-01T16:32:13;102465.91;;;6.23;100.00
12969;BME280;6549;53.128;8.182;2023-03-01T16:35:16;102465.41;;;6.21;100.00
12969;BME280;6549;53.128;8.182;2023-03-01T16:38:16;102465.06;;;6.14;100.00
12969;BME280;6549;53.128;8.182;2023-03-01T16:41:18;102461.19;;;6.06;100.00
12969;BME280;6549;53.128;8.182;2023-03-01T16:44:19;102468.69;;;6.01;100.00
12969;BME280;6549;53.128;8.182;2023-03-01T16:47:20;102468.53;;;5.97;100.00
12969;BME280;6549;53.128;8.182;2023-03-01T16:50:20;102473.78;;;5.94;100.00
12969;BME280;6549;53.128;8.182;2023-03-01T16:53:20;102470.16;;;5.84;100.00
12969;BME280;6549;53.128;8.182;2023-03-01T16:56:21;102472.03;;;5.75;100.00
12969;BME280;6549;53.128;8.182;2023-03-01T16:59:21;102468.25;;;5.63;100.00
12969;BME280;6549;53.128;8.182;2023-03-01T17:02:22;102472.53;;;5.55;100.00
12969;BME280;6549;53.128;8.182;2023-03-01T17:05:22;102470.38;;;5.43;100.00